sensor_id;sensor_type;location;lat;lon;timestamp;P1;durP1;ratioP1;P2;durP2;ratioP2
49392;SDS011;35268;42.642;23.308;2023-09-07T00:01:09;11.60;;;6.05;;
49392;SDS011;35268;42.642;23.308;2023-09-07T00:03:35;12.40;;;6.18;;
49392;SDS011;35268;42.642;23.308;2023-09-07T00:06:05;11.57;;;6.50;;
49392;SDS011;35268;42.642;23.308;2023-09-07T00:08:31;12.45;;;6.97;;
49392;SDS011;35268;42.642;23.308;2023-09-07T00:11:02;11.40;;;6.47;;
49392;SDS011;35268;42.642;23.308;2023-09-07T00:13:28;10.27;;;7.22;;
49392;SDS011;35268;42.642;23.308;2023-09-07T00:15:57;12.48;;;7.22;;
49392;SDS011;35268;42.642;23.308;2023-09-07T00:18:24;14.38;;;6.82;;
49392;SDS011;35268;42.642;23.308;2023-09-07T00:20:50;12.45;;;6.78;;
49392;SDS011;35268;42.642;23.308;2023-09-07T00:23:15;11.63;;;6.38;;
49392;SDS011;35268;42.642;23.308;2023-09-07T00:25:41;12.73;;;8.20;;
49392;SDS011;35268;42.642;23.308;2023-09-07T00:28:06;11.13;;;7.18;;
49392;SDS011;35268;42.642;23.308;2023-09-07T00:30:32;11.25;;;7.00;;
49392;SDS011;35268;42.642;23.308;2023-09-07T00:32:57;9.80;;;5.95;;
49392;SDS011;35268;42.642;23.308;2023-09-07T00:35:22;12.27;;;7.78;;
49392;SDS011;35268;42.642;23.308;2023-09-07T00:37:48;12.55;;;8.10;;
49392;SDS011;35268;42.642;23.308;2023-09-07T00:40:13;16.00;;;9.70;;
49392;SDS011;35268;42.642;23.308;2023-09-07T00:42:39;14.13;;;9.45;;
49392;SDS011;35268;42.642;23.308;2023-09-07T00:45:04;12.73;;;9.27;;
49392;SDS011;35268;42.642;23.308;2023-09-07T00:47:30;15.02;;;9.68;;
49392;SDS011;35268;42.642;23.308;2023-09-07T00:50:00;14.27;;;10.75;;
49392;SDS011;35268;42.642;23.308;2023-09-07T00:52:25;17.02;;;12.68;;
49392;SDS011;35268;42.642;23.308;2023-09-07T00:54:52;17.42;;;11.45;;
49392;SDS011;35268;42.642;23.308;2023-09-07T00:57:17;17.70;;;11.68;;
49392;SDS011;35268;42.642;23.308;2023-09-07T00:59:43;16.52;;;12.18;;
49392;SDS011;35268;42.642;23.308;2023-09-07T01:02:08;16.38;;;12.40;;
49392;SDS011;35268;42.642;23.308;2023-09-07T01:04:33;18.38;;;12.75;;
49392;SDS011;35268;42.642;23.308;2023-09-07T01:07:16;18.33;;;13.32;;
49392;SDS011;35268;42.642;23.308;2023-09-07T01:09:46;18.98;;;13.32;;
49392;SDS011;35268;42.642;23.308;2023-09-07T01:12:14;22.25;;;12.82;;
49392;SDS011;35268;42.642;23.308;2023-09-07T01:14:40;19.40;;;12.65;;
49392;SDS011;35268;42.642;23.308;2023-09-07T01:17:06;18.63;;;13.63;;
49392;SDS011;35268;42.642;23.308;2023-09-07T01:19:32;20.25;;;14.52;;
49392;SDS011;35268;42.642;23.308;2023-09-07T01:21:58;18.92;;;14.38;;
49392;SDS011;35268;42.642;23.308;2023-09-07T01:24:24;21.52;;;14.95;;
49392;SDS011;35268;42.642;23.308;2023-09-07T01:26:51;24.08;;;15.48;;
49392;SDS011;35268;42.642;23.308;2023-09-07T01:29:18;26.58;;;15.95;;
49392;SDS011;35268;42.642;23.308;2023-09-07T01:31:43;23.48;;;15.88;;
49392;SDS011;35268;42.642;23.308;2023-09-07T01:34:08;22.20;;;15.18;;
49392;SDS011;35268;42.642;23.308;2023-09-07T01:36:34;25.38;;;16.00;;
49392;SDS011;35268;42.642;23.308;2023-09-07T01:39:00;21.67;;;16.38;;
49392;SDS011;35268;42.642;23.308;2023-09-07T01:41:26;20.92;;;15.15;;
49392;SDS011;35268;42.642;23.308;2023-09-07T01:43:52;22.85;;;16.20;;
49392;SDS011;35268;42.642;23.308;2023-09-07T01:46:17;21.27;;;15.38;;
49392;SDS011;35268;42.642;23.308;2023-09-07T01:48:43;20.63;;;15.85;;
49392;SDS011;35268;42.642;23.308;2023-09-07T01:51:08;19.65;;;15.20;;
49392;SDS011;35268;42.642;23.308;2023-09-07T01:53:33;19.15;;;14.45;;
49392;SDS011;35268;42.642;23.308;2023-09-07T01:55:59;22.23;;;15.63;;
49392;SDS011;35268;42.642;23.308;2023-09-07T01:58:25;20.50;;;14.73;;
49392;SDS011;35268;42.642;23.308;2023-09-07T02:00:52;20.63;;;14.32;;
49392;SDS011;35268;42.642;23.308;2023-09-07T02:03:21;19.55;;;13.90;;
49392;SDS011;35268;42.642;23.308;2023-09-07T02:05:47;18.63;;;13.82;;
49392;SDS011;35268;42.642;23.308;2023-09-07T02:08:12;21.98;;;13.35;;
49392;SDS011;35268;42.642;23.308;2023-09-07T02:10:38;21.27;;;13.18;;
49392;SDS011;35268;42.642;23.308;2023-09-07T02:13:04;21.23;;;13.95;;
49392;SDS011;35268;42.642;23.308;2023-09-07T02:15:29;20.45;;;13.52;;
49392;SDS011;35268;42.642;23.308;2023-09-07T02:17:55;19.02;;;13.70;;
49392;SDS011;35268;42.642;23.308;2023-09-07T02:20:20;17.65;;;13.35;;
49392;SDS011;35268;42.642;23.308;2023-09-07T02:22:46;18.92;;;12.50;;
49392;SDS011;35268;42.642;23.308;2023-09-07T02:25:11;22.00;;;13.88;;
49392;SDS011;35268;42.642;23.308;2023-09-07T02:27:37;24.00;;;13.25;;
49392;SDS011;35268;42.642;23.308;2023-09-07T02:30:03;15.98;;;12.05;;
49392;SDS011;35268;42.642;23.308;2023-09-07T02:32:29;21.92;;;12.95;;
49392;SDS011;35268;42.642;23.308;2023-09-07T02:34:56;19.95;;;12.75;;
49392;SDS011;35268;42.642;23.308;2023-09-07T02:37:22;21.55;;;13.07;;
49392;SDS011;35268;42.642;23.308;2023-09-07T02:39:48;18.45;;;12.32;;
49392;SDS011;35268;42.642;23.308;2023-09-07T02:42:13;22.20;;;12.70;;
49392;SDS011;35268;42.642;23.308;2023-09-07T02:44:39;16.50;;;12.25;;
49392;SDS011;35268;42.642;23.308;2023-09-07T02:47:04;19.17;;;12.65;;
49392;SDS011;35268;42.642;23.308;2023-09-07T02:49:29;18.70;;;12.40;;
49392;SDS011;35268;42.642;23.308;2023-09-07T02:51:55;22.63;;;12.32;;
49392;SDS011;35268;42.642;23.308;2023-09-07T02:54:21;21.02;;;12.02;;
49392;SDS011;35268;42.642;23.308;2023-09-07T02:56:47;26.23;;;13.15;;
49392;SDS011;35268;42.642;23.308;2023-09-07T02:59:13;16.38;;;12.45;;
49392;SDS011;35268;42.642;23.308;2023-09-07T03:01:38;22.65;;;12.77;;
49392;SDS011;35268;42.642;23.308;2023-09-07T03:04:04;22.77;;;13.18;;
49392;SDS011;35268;42.642;23.308;2023-09-07T03:06:30;22.70;;;13.30;;
49392;SDS011;35268;42.642;23.308;2023-09-07T03:08:56;20.33;;;14.77;;
49392;SDS011;35268;42.642;23.308;2023-09-07T03:11:22;18.65;;;13.63;;
49392;SDS011;35268;42.642;23.308;2023-09-07T03:13:47;18.48;;;13.88;;
49392;SDS011;35268;42.642;23.308;2023-09-07T03:16:13;24.85;;;14.35;;
49392;SDS011;35268;42.642;23.308;2023-09-07T03:21:45;21.08;;;14.90;;
49392;SDS011;35268;42.642;23.308;2023-09-07T03:24:10;23.20;;;14.80;;
49392;SDS011;35268;42.642;23.308;2023-09-07T03:26:35;28.35;;;15.32;;
49392;SDS011;35268;42.642;23.308;2023-09-07T03:29:01;20.58;;;14.43;;
49392;SDS011;35268;42.642;23.308;2023-09-07T03:31:26;24.92;;;15.05;;
49392;SDS011;35268;42.642;23.308;2023-09-07T03:33:51;21.40;;;15.63;;
49392;SDS011;35268;42.642;23.308;2023-09-07T03:36:17;25.17;;;14.95;;
49392;SDS011;35268;42.642;23.308;2023-09-07T03:38:43;23.63;;;14.88;;
49392;SDS011;35268;42.642;23.308;2023-09-07T03:41:08;26.98;;;15.88;;
49392;SDS011;35268;42.642;23.308;2023-09-07T03:43:33;20.70;;;14.25;;
49392;SDS011;35268;42.642;23.308;2023-09-07T03:45:59;23.33;;;14.73;;
49392;SDS011;35268;42.642;23.308;2023-09-07T03:48:24;21.25;;;15.25;;
49392;SDS011;35268;42.642;23.308;2023-09-07T03:50:50;22.30;;;15.52;;
49392;SDS011;35268;42.642;23.308;2023-09-07T03:53:15;21.45;;;14.40;;
49392;SDS011;35268;42.642;23.308;2023-09-07T03:55:41;26.45;;;14.77;;
49392;SDS011;35268;42.642;23.308;2023-09-07T03:58:09;22.08;;;14.13;;
49392;SDS011;35268;42.642;23.308;2023-09-07T04:00:37;22.65;;;14.88;;
49392;SDS011;35268;42.642;23.308;2023-09-07T04:03:04;20.88;;;15.02;;
49392;SDS011;35268;42.642;23.308;2023-09-07T04:05:30;22.83;;;15.55;;
49392;SDS011;35268;42.642;23.308;2023-09-07T04:07:56;24.63;;;15.43;;
49392;SDS011;35268;42.642;23.308;2023-09-07T04:10:22;22.73;;;15.82;;
49392;SDS011;35268;42.642;23.308;2023-09-07T04:12:47;21.05;;;15.30;;
49392;SDS011;35268;42.642;23.308;2023-09-07T04:15:13;23.60;;;15.77;;
49392;SDS011;35268;42.642;23.308;2023-09-07T04:17:38;25.17;;;16.15;;
49392;SDS011;35268;42.642;23.308;2023-09-07T04:20:06;20.45;;;15.07;;
49392;SDS011;35268;42.642;23.308;2023-09-07T04:22:33;20.67;;;15.40;;
49392;SDS011;35268;42.642;23.308;2023-09-07T04:24:58;23.80;;;15.73;;
49392;SDS011;35268;42.642;23.308;2023-09-07T04:27:23;25.48;;;14.63;;
49392;SDS011;35268;42.642;23.308;2023-09-07T04:29:49;26.08;;;15.38;;
49392;SDS011;35268;42.642;23.308;2023-09-07T04:32:15;21.55;;;14.13;;
49392;SDS011;35268;42.642;23.308;2023-09-07T04:34:40;23.13;;;14.23;;
49392;SDS011;35268;42.642;23.308;2023-09-07T04:37:05;20.23;;;14.93;;
49392;SDS011;35268;42.642;23.308;2023-09-07T04:39:31;22.80;;;15.02;;
49392;SDS011;35268;42.642;23.308;2023-09-07T04:41:56;20.70;;;14.80;;
49392;SDS011;35268;42.642;23.308;2023-09-07T04:44:21;28.67;;;15.80;;
49392;SDS011;35268;42.642;23.308;2023-09-07T04:46:47;18.27;;;13.43;;
49392;SDS011;35268;42.642;23.308;2023-09-07T04:49:12;24.17;;;13.23;;
49392;SDS011;35268;42.642;23.308;2023-09-07T04:51:38;17.13;;;11.48;;
49392;SDS011;35268;42.642;23.308;2023-09-07T04:54:03;15.25;;;12.05;;
49392;SDS011;35268;42.642;23.308;2023-09-07T04:56:29;16.27;;;10.95;;
49392;SDS011;35268;42.642;23.308;2023-09-07T04:58:54;16.45;;;10.82;;
49392;SDS011;35268;42.642;23.308;2023-09-07T05:01:20;26.60;;;11.95;;
49392;SDS011;35268;42.642;23.308;2023-09-07T05:03:45;21.08;;;13.07;;
49392;SDS011;35268;42.642;23.308;2023-09-07T05:06:11;21.80;;;12.50;;
49392;SDS011;35268;42.642;23.308;2023-09-07T05:08:36;19.48;;;10.00;;
49392;SDS011;35268;42.642;23.308;2023-09-07T05:11:03;11.82;;;7.97;;
49392;SDS011;35268;42.642;23.308;2023-09-07T05:13:29;13.10;;;8.35;;
49392;SDS011;35268;42.642;23.308;2023-09-07T05:15:55;13.65;;;8.13;;
49392;SDS011;35268;42.642;23.308;2023-09-07T05:18:21;12.75;;;7.47;;
49392;SDS011;35268;42.642;23.308;2023-09-07T05:20:48;15.23;;;7.63;;
49392;SDS011;35268;42.642;23.308;2023-09-07T05:23:16;14.02;;;8.60;;
49392;SDS011;35268;42.642;23.308;2023-09-07T05:25:43;11.95;;;6.82;;
49392;SDS011;35268;42.642;23.308;2023-09-07T05:28:10;10.85;;;6.45;;
49392;SDS011;35268;42.642;23.308;2023-09-07T05:30:36;25.30;;;7.95;;
49392;SDS011;35268;42.642;23.308;2023-09-07T05:33:01;15.98;;;7.43;;
49392;SDS011;35268;42.642;23.308;2023-09-07T05:35:27;21.10;;;7.57;;
49392;SDS011;35268;42.642;23.308;2023-09-07T05:37:54;12.80;;;7.53;;
49392;SDS011;35268;42.642;23.308;2023-09-07T05:40:19;19.05;;;8.32;;
49392;SDS011;35268;42.642;23.308;2023-09-07T05:42:45;15.27;;;8.75;;
49392;SDS011;35268;42.642;23.308;2023-09-07T05:45:10;26.17;;;11.38;;
49392;SDS011;35268;42.642;23.308;2023-09-07T05:47:35;27.27;;;12.88;;
49392;SDS011;35268;42.642;23.308;2023-09-07T05:50:01;23.85;;;13.20;;
49392;SDS011;35268;42.642;23.308;2023-09-07T05:52:26;27.38;;;12.32;;
49392;SDS011;35268;42.642;23.308;2023-09-07T05:54:51;28.10;;;13.15;;
49392;SDS011;35268;42.642;23.308;2023-09-07T05:57:17;21.73;;;14.52;;
49392;SDS011;35268;42.642;23.308;2023-09-07T05:59:42;16.85;;;10.93;;
49392;SDS011;35268;42.642;23.308;2023-09-07T06:02:08;29.15;;;13.48;;
49392;SDS011;35268;42.642;23.308;2023-09-07T06:04:33;28.77;;;13.23;;
49392;SDS011;35268;42.642;23.308;2023-09-07T06:07:00;16.30;;;11.73;;
49392;SDS011;35268;42.642;23.308;2023-09-07T06:09:25;18.65;;;12.48;;
49392;SDS011;35268;42.642;23.308;2023-09-07T06:11:51;17.73;;;12.52;;
49392;SDS011;35268;42.642;23.308;2023-09-07T06:14:16;17.77;;;11.55;;
49392;SDS011;35268;42.642;23.308;2023-09-07T06:16:41;18.50;;;11.20;;
49392;SDS011;35268;42.642;23.308;2023-09-07T06:19:08;24.55;;;11.65;;
49392;SDS011;35268;42.642;23.308;2023-09-07T06:21:33;21.02;;;9.70;;
49392;SDS011;35268;42.642;23.308;2023-09-07T06:23:59;16.95;;;9.70;;
49392;SDS011;35268;42.642;23.308;2023-09-07T06:26:24;19.23;;;10.10;;
49392;SDS011;35268;42.642;23.308;2023-09-07T06:28:50;21.60;;;9.00;;
49392;SDS011;35268;42.642;23.308;2023-09-07T06:31:15;17.20;;;8.27;;
49392;SDS011;35268;42.642;23.308;2023-09-07T06:33:41;15.25;;;8.30;;
49392;SDS011;35268;42.642;23.308;2023-09-07T06:36:06;11.15;;;6.53;;
49392;SDS011;35268;42.642;23.308;2023-09-07T06:38:31;12.25;;;7.32;;
49392;SDS011;35268;42.642;23.308;2023-09-07T06:40:57;14.15;;;6.28;;
49392;SDS011;35268;42.642;23.308;2023-09-07T06:43:22;12.65;;;6.03;;
49392;SDS011;35268;42.642;23.308;2023-09-07T06:45:48;11.43;;;6.00;;
49392;SDS011;35268;42.642;23.308;2023-09-07T06:48:13;12.57;;;6.93;;
49392;SDS011;35268;42.642;23.308;2023-09-07T06:50:39;20.70;;;7.03;;
49392;SDS011;35268;42.642;23.308;2023-09-07T06:53:04;16.60;;;6.20;;
49392;SDS011;35268;42.642;23.308;2023-09-07T06:55:29;10.60;;;5.65;;
49392;SDS011;35268;42.642;23.308;2023-09-07T06:57:55;14.57;;;6.03;;
49392;SDS011;35268;42.642;23.308;2023-09-07T07:00:20;13.63;;;6.78;;
49392;SDS011;35268;42.642;23.308;2023-09-07T07:02:46;9.98;;;6.10;;
49392;SDS011;35268;42.642;23.308;2023-09-07T07:05:12;12.52;;;6.15;;
49392;SDS011;35268;42.642;23.308;2023-09-07T07:07:38;12.35;;;5.85;;
49392;SDS011;35268;42.642;23.308;2023-09-07T07:10:04;9.73;;;6.00;;
49392;SDS011;35268;42.642;23.308;2023-09-07T07:12:30;16.50;;;6.78;;
49392;SDS011;35268;42.642;23.308;2023-09-07T07:14:59;12.30;;;5.80;;
49392;SDS011;35268;42.642;23.308;2023-09-07T07:17:25;10.68;;;6.18;;
49392;SDS011;35268;42.642;23.308;2023-09-07T07:19:50;17.65;;;6.32;;
49392;SDS011;35268;42.642;23.308;2023-09-07T07:22:15;13.88;;;5.72;;
49392;SDS011;35268;42.642;23.308;2023-09-07T07:24:41;15.48;;;6.53;;
49392;SDS011;35268;42.642;23.308;2023-09-07T07:27:06;10.07;;;5.55;;
49392;SDS011;35268;42.642;23.308;2023-09-07T07:29:31;13.23;;;6.65;;
49392;SDS011;35268;42.642;23.308;2023-09-07T07:31:57;20.77;;;6.30;;
49392;SDS011;35268;42.642;23.308;2023-09-07T07:34:22;13.25;;;6.45;;
49392;SDS011;35268;42.642;23.308;2023-09-07T07:36:48;17.20;;;6.53;;
49392;SDS011;35268;42.642;23.308;2023-09-07T07:39:13;14.98;;;6.85;;
49392;SDS011;35268;42.642;23.308;2023-09-07T07:41:38;13.13;;;6.97;;
49392;SDS011;35268;42.642;23.308;2023-09-07T07:44:04;13.38;;;6.63;;
49392;SDS011;35268;42.642;23.308;2023-09-07T07:46:29;11.15;;;6.72;;
49392;SDS011;35268;42.642;23.308;2023-09-07T07:48:55;15.60;;;6.68;;
49392;SDS011;35268;42.642;23.308;2023-09-07T07:51:20;10.88;;;6.18;;
49392;SDS011;35268;42.642;23.308;2023-09-07T07:53:45;13.48;;;7.07;;
49392;SDS011;35268;42.642;23.308;2023-09-07T07:56:14;13.23;;;8.13;;
49392;SDS011;35268;42.642;23.308;2023-09-07T08:01:16;13.35;;;6.85;;
49392;SDS011;35268;42.642;23.308;2023-09-07T08:03:42;16.33;;;7.60;;
49392;SDS011;35268;42.642;23.308;2023-09-07T08:06:08;15.75;;;8.88;;
49392;SDS011;35268;42.642;23.308;2023-09-07T08:08:35;13.10;;;6.93;;
49392;SDS011;35268;42.642;23.308;2023-09-07T08:11:01;10.57;;;6.15;;
49392;SDS011;35268;42.642;23.308;2023-09-07T08:13:30;35.53;;;13.93;;
49392;SDS011;35268;42.642;23.308;2023-09-07T08:16:00;18.77;;;9.32;;
49392;SDS011;35268;42.642;23.308;2023-09-07T08:18:27;14.30;;;7.70;;
49392;SDS011;35268;42.642;23.308;2023-09-07T08:20:53;18.52;;;7.03;;
49392;SDS011;35268;42.642;23.308;2023-09-07T08:23:20;16.83;;;7.45;;
49392;SDS011;35268;42.642;23.308;2023-09-07T08:25:46;9.40;;;6.50;;
49392;SDS011;35268;42.642;23.308;2023-09-07T08:28:11;11.27;;;6.93;;
49392;SDS011;35268;42.642;23.308;2023-09-07T08:30:37;13.05;;;6.82;;
49392;SDS011;35268;42.642;23.308;2023-09-07T08:33:02;13.73;;;6.20;;
49392;SDS011;35268;42.642;23.308;2023-09-07T08:35:30;14.75;;;7.95;;
49392;SDS011;35268;42.642;23.308;2023-09-07T08:37:59;18.77;;;6.78;;
49392;SDS011;35268;42.642;23.308;2023-09-07T08:40:26;26.23;;;7.45;;
49392;SDS011;35268;42.642;23.308;2023-09-07T08:42:52;9.50;;;5.45;;
49392;SDS011;35268;42.642;23.308;2023-09-07T08:45:19;13.20;;;6.07;;
49392;SDS011;35268;42.642;23.308;2023-09-07T08:47:47;12.93;;;6.55;;
49392;SDS011;35268;42.642;23.308;2023-09-07T08:50:15;9.60;;;6.00;;
49392;SDS011;35268;42.642;23.308;2023-09-07T08:52:42;14.20;;;6.88;;
49392;SDS011;35268;42.642;23.308;2023-09-07T08:55:10;9.40;;;5.60;;
49392;SDS011;35268;42.642;23.308;2023-09-07T08:57:37;14.85;;;6.25;;
49392;SDS011;35268;42.642;23.308;2023-09-07T09:00:03;8.88;;;5.10;;
49392;SDS011;35268;42.642;23.308;2023-09-07T09:02:33;10.25;;;6.20;;
49392;SDS011;35268;42.642;23.308;2023-09-07T09:04:58;10.32;;;6.03;;
49392;SDS011;35268;42.642;23.308;2023-09-07T09:07:24;11.57;;;5.82;;
49392;SDS011;35268;42.642;23.308;2023-09-07T09:09:50;11.50;;;5.65;;
49392;SDS011;35268;42.642;23.308;2023-09-07T09:12:16;11.48;;;5.53;;
49392;SDS011;35268;42.642;23.308;2023-09-07T09:14:42;17.77;;;6.00;;
49392;SDS011;35268;42.642;23.308;2023-09-07T09:17:12;8.18;;;5.47;;
49392;SDS011;35268;42.642;23.308;2023-09-07T09:19:39;11.32;;;5.47;;
49392;SDS011;35268;42.642;23.308;2023-09-07T09:22:04;16.55;;;5.88;;
49392;SDS011;35268;42.642;23.308;2023-09-07T09:24:31;11.02;;;5.53;;
49392;SDS011;35268;42.642;23.308;2023-09-07T09:26:59;6.78;;;4.78;;
49392;SDS011;35268;42.642;23.308;2023-09-07T09:29:24;10.95;;;5.15;;
49392;SDS011;35268;42.642;23.308;2023-09-07T09:31:50;12.93;;;5.60;;
49392;SDS011;35268;42.642;23.308;2023-09-07T09:34:17;13.00;;;4.90;;
49392;SDS011;35268;42.642;23.308;2023-09-07T09:36:43;8.75;;;5.10;;
49392;SDS011;35268;42.642;23.308;2023-09-07T09:39:08;9.13;;;4.93;;
49392;SDS011;35268;42.642;23.308;2023-09-07T09:41:34;9.40;;;5.15;;
49392;SDS011;35268;42.642;23.308;2023-09-07T09:44:02;13.27;;;5.40;;
49392;SDS011;35268;42.642;23.308;2023-09-07T09:46:28;16.08;;;5.07;;
49392;SDS011;35268;42.642;23.308;2023-09-07T09:48:56;7.93;;;4.95;;
49392;SDS011;35268;42.642;23.308;2023-09-07T09:51:22;12.95;;;4.78;;
49392;SDS011;35268;42.642;23.308;2023-09-07T09:53:50;7.03;;;4.15;;
49392;SDS011;35268;42.642;23.308;2023-09-07T09:56:16;9.27;;;3.97;;
49392;SDS011;35268;42.642;23.308;2023-09-07T09:58:42;11.07;;;5.60;;
49392;SDS011;35268;42.642;23.308;2023-09-07T10:01:07;13.48;;;4.32;;
49392;SDS011;35268;42.642;23.308;2023-09-07T10:03:37;11.43;;;5.55;;
49392;SDS011;35268;42.642;23.308;2023-09-07T10:06:11;9.50;;;4.88;;
49392;SDS011;35268;42.642;23.308;2023-09-07T10:08:50;15.50;;;4.72;;
49392;SDS011;35268;42.642;23.308;2023-09-07T10:11:26;18.55;;;4.60;;
49392;SDS011;35268;42.642;23.308;2023-09-07T10:13:57;20.25;;;8.20;;
49392;SDS011;35268;42.642;23.308;2023-09-07T10:16:23;10.00;;;4.95;;
49392;SDS011;35268;42.642;23.308;2023-09-07T10:18:49;9.85;;;3.95;;
49392;SDS011;35268;42.642;23.308;2023-09-07T10:21:14;7.30;;;4.28;;
49392;SDS011;35268;42.642;23.308;2023-09-07T10:23:40;12.55;;;5.50;;
49392;SDS011;35268;42.642;23.308;2023-09-07T10:26:16;12.73;;;5.55;;
49392;SDS011;35268;42.642;23.308;2023-09-07T10:28:43;6.47;;;4.15;;
49392;SDS011;35268;42.642;23.308;2023-09-07T10:34:43;16.38;;;4.90;;
49392;SDS011;35268;42.642;23.308;2023-09-07T10:36:59;11.98;;;4.70;;
49392;SDS011;35268;42.642;23.308;2023-09-07T10:39:28;11.73;;;4.47;;
49392;SDS011;35268;42.642;23.308;2023-09-07T10:41:56;10.83;;;4.30;;
49392;SDS011;35268;42.642;23.308;2023-09-07T10:44:27;12.13;;;3.80;;
49392;SDS011;35268;42.642;23.308;2023-09-07T10:46:53;14.30;;;3.97;;
49392;SDS011;35268;42.642;23.308;2023-09-07T10:49:19;13.45;;;4.80;;
49392;SDS011;35268;42.642;23.308;2023-09-07T10:51:46;9.45;;;4.38;;
49392;SDS011;35268;42.642;23.308;2023-09-07T10:56:43;8.35;;;5.15;;
49392;SDS011;35268;42.642;23.308;2023-09-07T10:59:09;12.40;;;5.03;;
49392;SDS011;35268;42.642;23.308;2023-09-07T11:01:34;10.00;;;5.38;;
49392;SDS011;35268;42.642;23.308;2023-09-07T11:04:00;8.90;;;4.80;;
49392;SDS011;35268;42.642;23.308;2023-09-07T11:06:26;11.68;;;5.20;;
49392;SDS011;35268;42.642;23.308;2023-09-07T11:08:51;12.10;;;5.38;;
49392;SDS011;35268;42.642;23.308;2023-09-07T11:11:17;9.02;;;5.22;;
49392;SDS011;35268;42.642;23.308;2023-09-07T11:13:42;12.55;;;5.82;;
49392;SDS011;35268;42.642;23.308;2023-09-07T11:16:08;9.45;;;4.25;;
49392;SDS011;35268;42.642;23.308;2023-09-07T11:18:35;11.35;;;4.43;;
49392;SDS011;35268;42.642;23.308;2023-09-07T11:21:01;13.82;;;5.30;;
49392;SDS011;35268;42.642;23.308;2023-09-07T11:23:29;12.35;;;5.40;;
49392;SDS011;35268;42.642;23.308;2023-09-07T11:28:29;9.20;;;5.03;;
49392;SDS011;35268;42.642;23.308;2023-09-07T11:30:55;8.80;;;4.63;;
49392;SDS011;35268;42.642;23.308;2023-09-07T11:33:20;17.83;;;6.40;;
49392;SDS011;35268;42.642;23.308;2023-09-07T11:35:48;13.93;;;5.93;;
49392;SDS011;35268;42.642;23.308;2023-09-07T11:38:14;9.13;;;4.65;;
49392;SDS011;35268;42.642;23.308;2023-09-07T11:40:41;12.25;;;5.60;;
49392;SDS011;35268;42.642;23.308;2023-09-07T11:43:18;13.93;;;5.55;;
49392;SDS011;35268;42.642;23.308;2023-09-07T11:45:45;13.77;;;4.88;;
49392;SDS011;35268;42.642;23.308;2023-09-07T11:48:11;13.25;;;5.60;;
49392;SDS011;35268;42.642;23.308;2023-09-07T11:50:38;16.48;;;4.68;;
49392;SDS011;35268;42.642;23.308;2023-09-07T11:53:05;15.18;;;4.20;;
49392;SDS011;35268;42.642;23.308;2023-09-07T11:55:31;16.65;;;5.30;;
49392;SDS011;35268;42.642;23.308;2023-09-07T11:57:58;12.85;;;4.38;;
49392;SDS011;35268;42.642;23.308;2023-09-07T12:00:23;8.52;;;4.72;;
49392;SDS011;35268;42.642;23.308;2023-09-07T12:02:49;6.60;;;4.13;;
49392;SDS011;35268;42.642;23.308;2023-09-07T12:05:15;7.95;;;3.95;;
49392;SDS011;35268;42.642;23.308;2023-09-07T12:07:41;11.43;;;3.85;;
49392;SDS011;35268;42.642;23.308;2023-09-07T12:10:10;13.80;;;3.80;;
49392;SDS011;35268;42.642;23.308;2023-09-07T12:12:36;10.77;;;4.03;;
49392;SDS011;35268;42.642;23.308;2023-09-07T12:15:02;12.88;;;3.85;;
49392;SDS011;35268;42.642;23.308;2023-09-07T12:17:29;16.15;;;4.07;;
49392;SDS011;35268;42.642;23.308;2023-09-07T12:19:54;7.50;;;3.65;;
49392;SDS011;35268;42.642;23.308;2023-09-07T12:22:20;8.80;;;4.20;;
49392;SDS011;35268;42.642;23.308;2023-09-07T12:24:45;9.88;;;4.32;;
49392;SDS011;35268;42.642;23.308;2023-09-07T12:27:11;7.35;;;4.30;;
49392;SDS011;35268;42.642;23.308;2023-09-07T12:29:36;11.32;;;4.28;;
49392;SDS011;35268;42.642;23.308;2023-09-07T12:32:01;15.13;;;4.03;;
49392;SDS011;35268;42.642;23.308;2023-09-07T12:34:27;13.18;;;4.10;;
49392;SDS011;35268;42.642;23.308;2023-09-07T12:36:52;12.48;;;4.25;;
49392;SDS011;35268;42.642;23.308;2023-09-07T12:39:18;12.82;;;4.10;;
49392;SDS011;35268;42.642;23.308;2023-09-07T12:41:43;13.88;;;4.97;;
49392;SDS011;35268;42.642;23.308;2023-09-07T12:44:08;16.10;;;5.05;;
49392;SDS011;35268;42.642;23.308;2023-09-07T12:46:34;12.55;;;4.35;;
49392;SDS011;35268;42.642;23.308;2023-09-07T12:49:00;8.05;;;3.85;;
49392;SDS011;35268;42.642;23.308;2023-09-07T12:51:25;9.13;;;4.85;;
49392;SDS011;35268;42.642;23.308;2023-09-07T12:53:51;16.33;;;5.35;;
49392;SDS011;35268;42.642;23.308;2023-09-07T12:56:16;10.32;;;4.85;;
49392;SDS011;35268;42.642;23.308;2023-09-07T12:58:43;16.20;;;4.05;;
49392;SDS011;35268;42.642;23.308;2023-09-07T13:01:08;11.48;;;4.28;;
49392;SDS011;35268;42.642;23.308;2023-09-07T13:03:35;9.35;;;4.20;;
49392;SDS011;35268;42.642;23.308;2023-09-07T13:06:02;13.68;;;3.80;;
49392;SDS011;35268;42.642;23.308;2023-09-07T13:08:28;6.28;;;3.58;;
49392;SDS011;35268;42.642;23.308;2023-09-07T13:10:54;12.30;;;4.05;;
49392;SDS011;35268;42.642;23.308;2023-09-07T13:13:20;13.32;;;4.20;;
49392;SDS011;35268;42.642;23.308;2023-09-07T13:15:47;9.00;;;3.53;;
49392;SDS011;35268;42.642;23.308;2023-09-07T13:18:12;12.45;;;3.63;;
49392;SDS011;35268;42.642;23.308;2023-09-07T13:20:38;15.45;;;3.83;;
49392;SDS011;35268;42.642;23.308;2023-09-07T13:23:04;13.60;;;4.28;;
49392;SDS011;35268;42.642;23.308;2023-09-07T13:25:30;16.55;;;3.85;;
49392;SDS011;35268;42.642;23.308;2023-09-07T13:27:55;9.35;;;3.33;;
49392;SDS011;35268;42.642;23.308;2023-09-07T13:30:20;12.95;;;3.90;;
49392;SDS011;35268;42.642;23.308;2023-09-07T13:32:46;8.95;;;3.65;;
49392;SDS011;35268;42.642;23.308;2023-09-07T13:35:11;10.07;;;3.65;;
49392;SDS011;35268;42.642;23.308;2023-09-07T13:37:37;9.63;;;3.75;;
49392;SDS011;35268;42.642;23.308;2023-09-07T13:40:02;15.20;;;5.53;;
49392;SDS011;35268;42.642;23.308;2023-09-07T13:42:28;17.98;;;4.35;;
49392;SDS011;35268;42.642;23.308;2023-09-07T13:44:54;11.68;;;3.60;;
49392;SDS011;35268;42.642;23.308;2023-09-07T13:47:21;9.38;;;3.78;;
49392;SDS011;35268;42.642;23.308;2023-09-07T13:49:46;7.13;;;3.80;;
49392;SDS011;35268;42.642;23.308;2023-09-07T13:52:11;11.80;;;3.72;;
49392;SDS011;35268;42.642;23.308;2023-09-07T13:54:38;19.48;;;5.68;;
49392;SDS011;35268;42.642;23.308;2023-09-07T13:57:04;13.02;;;3.97;;
49392;SDS011;35268;42.642;23.308;2023-09-07T13:59:29;6.70;;;3.58;;
49392;SDS011;35268;42.642;23.308;2023-09-07T14:01:57;21.63;;;4.40;;
49392;SDS011;35268;42.642;23.308;2023-09-07T14:04:23;15.43;;;4.57;;
49392;SDS011;35268;42.642;23.308;2023-09-07T14:06:48;7.63;;;3.88;;
49392;SDS011;35268;42.642;23.308;2023-09-07T14:09:14;13.55;;;3.63;;
49392;SDS011;35268;42.642;23.308;2023-09-07T14:11:39;10.88;;;3.20;;
49392;SDS011;35268;42.642;23.308;2023-09-07T14:14:05;8.85;;;3.65;;
49392;SDS011;35268;42.642;23.308;2023-09-07T14:16:31;18.25;;;3.67;;
49392;SDS011;35268;42.642;23.308;2023-09-07T14:18:56;18.30;;;4.25;;
49392;SDS011;35268;42.642;23.308;2023-09-07T14:21:22;9.35;;;3.63;;
49392;SDS011;35268;42.642;23.308;2023-09-07T14:23:47;14.02;;;3.92;;
49392;SDS011;35268;42.642;23.308;2023-09-07T14:26:12;11.20;;;3.70;;